Time;durP1;ratioP1;P1;durP2;ratioP2;P2;SDS_P1;SDS_P2;PMS_P1;PMS_P2;Temp;Humidity;BMP_temperature;BMP_pressure;BME280_temperature;BME280_humidity;BME280_pressure;Samples;Min_cycle;Max_cycle;Signal;HPM_P1;HPM_P2
2021/12/14 00:01:49;;;;;;;4.30;3.90;;;6.90;99.90;;;;;;503104;236;28123;-76
2021/12/14 00:03:51;;;;;;;4.18;3.78;;;6.90;99.90;;;;;;503106;236;29208;-75
2021/12/14 00:05:52;;;;;;;4.00;3.60;;;6.90;99.90;;;;;;503114;236;27512;-75
2021/12/14 00:07:56;;;;;;;5.35;4.55;;;6.90;99.90;;;;;;503093;236;27425;-75
2021/12/14 00:10:03;;;;;;;4.90;4.40;;;6.90;99.90;;;;;;502926;236;27585;-76
2021/12/14 00:14:26;;;;;;;5.10;4.70;;;6.80;99.90;;;;;;493414;240;27616;-75
2021/12/14 00:16:13;;;;;;;5.45;4.90;;;6.90;99.90;;;;;;496818;236;27429;-76
2021/12/14 00:18:15;;;;;;;4.90;4.45;;;6.80;99.90;;;;;;503104;236;27511;-76
2021/12/14 00:20:16;;;;;;;5.40;4.90;;;6.80;99.90;;;;;;503090;236;27565;-76
2021/12/14 00:22:34;;;;;;;4.57;4.18;;;6.80;99.90;;;;;;503116;236;27524;-76
2021/12/14 00:24:26;;;;;;;4.95;4.45;;;6.80;99.90;;;;;;502203;236;27970;-75
2021/12/14 00:26:26;;;;;;;4.72;4.32;;;6.80;99.90;;;;;;503012;236;27979;-75
2021/12/14 00:28:27;;;;;;;5.22;4.20;;;6.80;99.90;;;;;;503108;236;27488;-76
2021/12/14 00:30:28;;;;;;;4.93;4.43;;;6.80;99.90;;;;;;503099;236;27443;-74
2021/12/14 00:32:29;;;;;;;4.50;4.10;;;6.80;99.90;;;;;;503105;236;27450;-76
2021/12/14 00:34:40;;;;;;;4.47;4.07;;;6.80;99.90;;;;;;503127;236;27548;-76
2021/12/14 00:36:38;;;;;;;4.07;3.75;;;6.80;99.90;;;;;;502831;236;27451;-76
2021/12/14 00:38:39;;;;;;;4.87;4.37;;;6.80;99.90;;;;;;503126;236;27536;-75
2021/12/14 00:40:41;;;;;;;4.40;4.00;;;6.80;99.90;;;;;;503132;236;27530;-73
2021/12/14 00:42:41;;;;;;;5.07;4.62;;;6.80;99.90;;;;;;503010;236;27987;-73
2021/12/14 00:44:43;;;;;;;4.18;3.78;;;6.80;99.90;;;;;;503097;236;28225;-73
2021/12/14 00:46:44;;;;;;;4.72;4.00;;;6.80;99.90;;;;;;503122;236;27537;-74
2021/12/14 00:48:45;;;;;;;4.25;3.85;;;6.80;99.90;;;;;;503103;236;27584;-73
2021/12/14 00:50:46;;;;;;;4.45;4.05;;;6.80;99.90;;;;;;503098;236;27454;-73
2021/12/14 00:52:48;;;;;;;4.32;3.92;;;6.80;99.90;;;;;;503089;236;27483;-74
2021/12/14 00:54:49;;;;;;;4.35;3.95;;;6.80;99.90;;;;;;503124;236;27496;-73
2021/12/14 00:56:50;;;;;;;5.32;4.82;;;6.80;99.90;;;;;;503113;236;27904;-73
2021/12/14 00:58:51;;;;;;;5.20;4.70;;;6.80;99.90;;;;;;503111;236;27946;-73
2021/12/14 01:00:53;;;;;;;5.20;4.70;;;6.80;99.90;;;;;;503095;236;27484;-75
2021/12/14 01:02:54;;;;;;;4.65;4.25;;;6.80;99.90;;;;;;503066;236;27553;-76
2021/12/14 01:04:55;;;;;;;4.78;4.28;;;6.80;99.90;;;;;;503093;236;27850;-75
2021/12/14 01:06:56;;;;;;;6.65;5.30;;;6.80;99.90;;;;;;503084;236;27540;-76
2021/12/14 01:08:58;;;;;;;5.28;4.65;;;6.80;99.90;;;;;;503103;236;27541;-76
2021/12/14 01:11:02;;;;;;;5.65;5.12;;;6.80;99.90;;;;;;503091;236;27954;-76
2021/12/14 01:13:05;;;;;;;6.05;5.53;;;6.80;99.90;;;;;;502821;236;27940;-76
2021/12/14 01:17:41;;;;;;;5.22;4.72;;;6.80;99.90;;;;;;503072;236;27496;-73
2021/12/14 01:19:29;;;;;;;5.45;4.95;;;6.80;99.90;;;;;;501964;236;27901;-73
2021/12/14 01:21:47;;;;;;;5.82;5.22;;;6.80;99.90;;;;;;503120;236;27481;-73
2021/12/14 01:23:34;;;;;;;6.10;5.60;;;6.80;99.90;;;;;;501594;236;27454;-76
2021/12/14 01:25:32;;;;;;;5.50;4.90;;;6.80;99.90;;;;;;502875;236;27478;-76
2021/12/14 01:27:34;;;;;;;6.22;5.43;;;6.80;99.90;;;;;;503015;236;27469;-76
2021/12/14 01:29:35;;;;;;;6.50;5.78;;;6.80;99.90;;;;;;503042;236;27471;-76
2021/12/14 01:31:39;;;;;;;6.40;5.65;;;6.80;99.90;;;;;;503091;236;27998;-75
2021/12/14 01:33:39;;;;;;;6.35;5.37;;;6.70;99.90;;;;;;502822;236;27882;-76
2021/12/14 01:35:39;;;;;;;5.87;5.28;;;6.70;99.90;;;;;;503014;236;27502;-76
2021/12/14 01:37:45;;;;;;;7.30;5.47;;;6.70;99.90;;;;;;503115;236;27438;-75
2021/12/14 01:40:00;;;;;;;5.03;4.40;;;6.70;99.90;;;;;;502662;236;28836;-75
2021/12/14 01:41:48;;;;;;;6.05;5.18;;;6.70;99.90;;;;;;501986;236;27972;-75
2021/12/14 01:43:50;;;;;;;5.43;4.90;;;6.70;99.90;;;;;;503101;236;27584;-75
2021/12/14 01:45:51;;;;;;;5.50;4.50;;;6.70;99.90;;;;;;503095;236;27469;-75
2021/12/14 01:47:52;;;;;;;6.00;5.40;;;6.70;99.90;;;;;;503087;236;27458;-75
2021/12/14 01:49:54;;;;;;;5.18;4.68;;;6.70;99.90;;;;;;503105;236;27579;-76
2021/12/14 01:51:55;;;;;;;5.12;4.68;;;6.80;99.90;;;;;;503087;236;27549;-76
2021/12/14 01:53:56;;;;;;;5.47;4.80;;;6.70;99.90;;;;;;503089;236;27965;-76
2021/12/14 01:55:57;;;;;;;5.90;4.93;;;6.70;99.90;;;;;;503098;236;27942;-76
2021/12/14 01:57:59;;;;;;;5.57;5.07;;;6.70;99.90;;;;;;503098;236;27482;-75
2021/12/14 02:00:01;;;;;;;6.62;5.82;;;6.70;99.90;;;;;;503087;236;27444;-76
2021/12/14 02:02:24;;;;;;;7.00;5.28;;;6.60;99.90;;;;;;503026;236;27484;-75
2021/12/14 02:04:20;;;;;;;6.32;5.72;;;6.60;99.90;;;;;;502740;236;27451;-75
2021/12/14 02:06:22;;;;;;;6.87;6.07;;;6.70;99.90;;;;;;503129;236;27476;-75
2021/12/14 02:08:23;;;;;;;6.47;5.70;;;6.70;99.90;;;;;;503123;236;27489;-76
2021/12/14 02:10:24;;;;;;;6.63;6.00;;;6.70;99.90;;;;;;503134;236;28010;-75
2021/12/14 02:12:25;;;;;;;8.13;5.60;;;6.70;99.90;;;;;;503103;236;29345;-76
2021/12/14 02:14:27;;;;;;;5.90;5.30;;;6.60;99.90;;;;;;503103;236;27434;-75
2021/12/14 02:16:28;;;;;;;6.30;5.68;;;6.60;99.90;;;;;;503091;236;27561;-75
2021/12/14 02:18:29;;;;;;;7.72;5.60;;;6.60;99.90;;;;;;503110;236;27924;-76
2021/12/14 02:20:30;;;;;;;8.23;6.10;;;6.60;99.90;;;;;;503092;236;27442;-76
2021/12/14 02:22:32;;;;;;;7.20;5.60;;;6.60;99.90;;;;;;503103;236;27573;-76
2021/12/14 02:24:33;;;;;;;6.62;5.93;;;6.60;99.90;;;;;;503066;236;29650;-75
2021/12/14 02:26:34;;;;;;;7.18;5.60;;;6.60;99.90;;;;;;503057;236;27951;-76
2021/12/14 02:28:35;;;;;;;9.68;5.40;;;6.70;99.90;;;;;;503118;236;27519;-75
2021/12/14 02:30:37;;;;;;;6.22;5.60;;;6.60;99.90;;;;;;503083;236;27442;-76
2021/12/14 02:32:38;;;;;;;6.18;5.57;;;6.60;99.90;;;;;;503029;236;27485;-75
2021/12/14 02:34:39;;;;;;;6.25;4.95;;;6.60;99.90;;;;;;503104;236;27442;-75
2021/12/14 02:36:40;;;;;;;5.75;5.15;;;6.60;99.90;;;;;;503100;236;27478;-76
2021/12/14 02:38:42;;;;;;;8.65;5.43;;;6.60;99.90;;;;;;503097;236;28136;-75
2021/12/14 02:40:55;;;;;;;6.75;5.78;;;6.60;99.90;;;;;;503086;236;28044;-76
2021/12/14 02:42:56;;;;;;;5.47;4.97;;;6.60;99.90;;;;;;503069;236;28070;-75
2021/12/14 02:44:57;;;;;;;6.85;5.53;;;6.60;99.90;;;;;;503088;236;28000;-75
2021/12/14 02:46:58;;;;;;;7.40;6.45;;;6.60;99.90;;;;;;503100;236;27485;-76
2021/12/14 02:49:00;;;;;;;7.18;6.10;;;6.60;99.90;;;;;;503123;236;27435;-75
2021/12/14 02:51:01;;;;;;;7.03;6.32;;;6.60;99.90;;;;;;503111;236;27476;-77
2021/12/14 02:53:02;;;;;;;6.50;5.30;;;6.50;99.90;;;;;;503122;236;27552;-76
2021/12/14 02:55:04;;;;;;;6.32;5.12;;;6.50;99.90;;;;;;503094;236;27479;-76
2021/12/14 02:57:05;;;;;;;7.50;5.95;;;6.50;99.90;;;;;;503115;236;27932;-76
2021/12/14 02:59:06;;;;;;;8.07;5.50;;;6.50;99.90;;;;;;503103;236;27917;-75
2021/12/14 03:01:07;;;;;;;6.10;5.28;;;6.60;99.90;;;;;;503100;236;27541;-76
2021/12/14 03:03:09;;;;;;;6.68;5.72;;;6.60;99.90;;;;;;503107;236;27485;-75
2021/12/14 03:05:10;;;;;;;6.93;5.90;;;6.50;99.90;;;;;;503124;236;27431;-75
2021/12/14 03:07:12;;;;;;;7.35;6.00;;;6.50;99.90;;;;;;503117;236;27478;-76
2021/12/14 03:09:32;;;;;;;6.60;5.63;;;6.50;99.90;;;;;;503093;236;27448;-75
2021/12/14 03:11:14;;;;;;;8.05;6.40;;;6.60;99.90;;;;;;501439;236;28604;-76
2021/12/14 03:13:15;;;;;;;9.65;6.65;;;6.50;99.90;;;;;;503116;236;27957;-77
2021/12/14 03:15:16;;;;;;;6.47;5.57;;;6.60;99.90;;;;;;503121;236;27969;-76
2021/12/14 03:17:17;;;;;;;7.45;6.07;;;6.60;99.90;;;;;;503113;236;27473;-76
2021/12/14 03:19:19;;;;;;;7.53;6.40;;;6.60;99.90;;;;;;503142;236;27435;-75
2021/12/14 03:21:20;;;;;;;8.88;6.85;;;6.50;99.90;;;;;;503125;236;27516;-75
2021/12/14 03:23:21;;;;;;;9.18;6.62;;;6.50;99.90;;;;;;503129;236;27493;-76
2021/12/14 03:25:22;;;;;;;11.55;7.45;;;6.50;99.90;;;;;;503139;236;27427;-75
2021/12/14 03:27:24;;;;;;;10.43;7.90;;;6.60;99.90;;;;;;503132;236;27940;-75
2021/12/14 03:29:25;;;;;;;8.20;6.80;;;6.50;99.90;;;;;;503159;236;27889;-75
2021/12/14 03:31:26;;;;;;;9.90;7.65;;;6.50;99.90;;;;;;503137;236;27471;-75
2021/12/14 03:33:27;;;;;;;7.85;6.72;;;6.50;99.90;;;;;;503151;236;27571;-75
2021/12/14 03:35:29;;;;;;;9.60;6.93;;;6.50;99.90;;;;;;503126;236;27450;-76
2021/12/14 03:37:30;;;;;;;7.90;6.85;;;6.50;99.90;;;;;;503102;236;27494;-73
2021/12/14 03:39:31;;;;;;;7.10;6.25;;;6.50;99.90;;;;;;503057;236;27437;-72
2021/12/14 03:41:32;;;;;;;7.00;5.68;;;6.50;99.90;;;;;;503128;236;28025;-76
2021/12/14 03:43:34;;;;;;;7.80;6.20;;;6.40;99.90;;;;;;503105;236;28068;-76
2021/12/14 03:45:35;;;;;;;7.00;6.30;;;6.40;99.90;;;;;;503117;236;27429;-76
2021/12/14 03:47:36;;;;;;;7.87;6.55;;;6.40;99.90;;;;;;503115;236;27486;-76
2021/12/14 03:49:37;;;;;;;9.65;6.50;;;6.40;99.90;;;;;;503089;236;27435;-76
2021/12/14 03:51:39;;;;;;;9.45;6.97;;;6.40;99.90;;;;;;503084;236;27430;-75
2021/12/14 03:53:40;;;;;;;7.60;6.62;;;6.40;99.90;;;;;;503082;236;27475;-75
2021/12/14 03:55:42;;;;;;;6.90;5.60;;;6.40;99.90;;;;;;503111;236;28008;-76
2021/12/14 03:57:43;;;;;;;7.72;6.35;;;6.40;99.90;;;;;;503087;236;28099;-75
2021/12/14 03:59:44;;;;;;;8.18;6.32;;;6.40;99.90;;;;;;503084;236;27479;-76
2021/12/14 04:01:45;;;;;;;7.70;6.10;;;6.40;99.90;;;;;;503120;236;27626;-75
2021/12/14 04:03:46;;;;;;;8.93;7.37;;;6.40;99.90;;;;;;503081;236;27477;-76
2021/12/14 04:05:48;;;;;;;8.63;6.40;;;6.40;99.90;;;;;;503073;236;27518;-76
2021/12/14 04:07:49;;;;;;;8.43;6.50;;;6.30;99.90;;;;;;503108;236;27476;-75
2021/12/14 04:09:50;;;;;;;9.20;6.70;;;6.30;99.90;;;;;;503093;236;28220;-75
2021/12/14 04:11:51;;;;;;;10.40;6.65;;;6.30;99.90;;;;;;503119;236;27987;-75
2021/12/14 04:13:54;;;;;;;7.72;5.78;;;6.30;99.90;;;;;;503099;236;27474;-76
2021/12/14 04:15:54;;;;;;;9.60;6.57;;;6.30;99.90;;;;;;503048;236;27578;-76
2021/12/14 04:17:55;;;;;;;8.40;6.32;;;6.40;99.90;;;;;;503064;236;27473;-75
2021/12/14 04:19:56;;;;;;;8.93;6.37;;;6.40;99.90;;;;;;503160;236;27948;-76
2021/12/14 04:21:58;;;;;;;8.52;6.40;;;6.40;99.90;;;;;;503073;236;27490;-75
2021/12/14 04:23:59;;;;;;;9.75;7.20;;;6.30;99.90;;;;;;503083;236;27953;-75
2021/12/14 04:26:00;;;;;;;9.20;7.18;;;6.40;99.90;;;;;;503122;236;27886;-75
2021/12/14 04:28:01;;;;;;;7.85;6.00;;;6.40;99.90;;;;;;503097;236;27584;-75
2021/12/14 04:30:03;;;;;;;7.45;6.03;;;6.30;99.90;;;;;;503045;236;27478;-75
2021/12/14 04:32:04;;;;;;;10.25;5.97;;;6.30;99.90;;;;;;503096;236;27500;-76
2021/12/14 04:34:05;;;;;;;8.07;6.00;;;6.30;99.90;;;;;;503066;236;27571;-76
2021/12/14 04:36:07;;;;;;;8.52;5.57;;;6.30;99.90;;;;;;502874;236;27518;-73
2021/12/14 04:38:15;;;;;;;7.55;6.15;;;6.30;99.90;;;;;;503089;236;27455;-73
2021/12/14 04:40:21;;;;;;;7.03;6.18;;;6.30;99.90;;;;;;502456;236;28720;-72
2021/12/14 04:53:50;;;;;;;7.43;5.68;;;6.30;99.90;;;;;;503109;236;28064;-75
2021/12/14 04:55:51;;;;;;;9.05;6.85;;;6.20;99.90;;;;;;503127;236;27475;-75
2021/12/14 04:57:53;;;;;;;7.82;5.90;;;6.20;99.90;;;;;;503123;236;27456;-76
2021/12/14 04:59:54;;;;;;;8.15;5.97;;;6.20;99.90;;;;;;503139;236;27510;-75
2021/12/14 05:01:55;;;;;;;7.60;5.70;;;6.20;99.90;;;;;;503094;236;27490;-75
2021/12/14 05:03:56;;;;;;;8.48;5.90;;;6.20;99.90;;;;;;503104;236;27481;-76
2021/12/14 05:06:09;;;;;;;6.50;5.20;;;6.20;99.90;;;;;;503103;236;27903;-75
2021/12/14 05:09:21;;;;;;;9.63;6.53;;;6.20;99.90;;;;;;502083;236;27984;-76
2021/12/14 05:10:00;;;;;;;9.98;6.30;;;6.20;99.90;;;;;;501236;236;27566;-76
2021/12/14 05:12:01;;;;;;;9.07;6.70;;;6.10;99.90;;;;;;503094;236;27453;-75
2021/12/14 05:14:03;;;;;;;8.77;6.53;;;6.20;99.90;;;;;;503064;236;27513;-76
2021/12/14 05:16:04;;;;;;;11.20;7.10;;;6.10;99.90;;;;;;503071;236;27520;-76
2021/12/14 05:18:05;;;;;;;9.65;7.22;;;6.20;99.90;;;;;;503094;236;27585;-75
2021/12/14 05:20:06;;;;;;;11.75;7.40;;;6.10;99.90;;;;;;503084;236;27938;-75
2021/12/14 05:22:08;;;;;;;9.52;6.65;;;6.10;99.90;;;;;;503071;236;27902;-75
2021/12/14 05:24:09;;;;;;;8.55;6.18;;;6.10;99.90;;;;;;503084;236;27962;-75
2021/12/14 05:26:10;;;;;;;8.68;6.32;;;6.10;99.90;;;;;;503080;236;27563;-75
2021/12/14 05:28:14;;;;;;;10.40;7.50;;;6.20;99.90;;;;;;503073;236;27469;-75
2021/12/14 05:30:13;;;;;;;8.80;6.57;;;6.20;99.90;;;;;;502884;236;27466;-76
2021/12/14 05:32:15;;;;;;;9.68;7.00;;;6.10;99.90;;;;;;503092;236;27516;-75
2021/12/14 05:34:15;;;;;;;9.18;6.82;;;6.10;99.90;;;;;;503061;236;27492;-75
2021/12/14 05:36:16;;;;;;;8.50;6.07;;;6.10;99.90;;;;;;503050;236;28734;-75
2021/12/14 05:38:20;;;;;;;6.62;5.53;;;6.10;99.90;;;;;;503079;236;27883;-75
2021/12/14 05:40:36;;;;;;;8.43;6.60;;;6.10;99.90;;;;;;502888;236;27480;-76
2021/12/14 05:44:39;;;;;;;7.85;6.05;;;6.10;99.90;;;;;;503071;236;27575;-76
2021/12/14 05:46:49;;;;;;;7.75;6.03;;;6.10;99.90;;;;;;503088;236;27562;-75
2021/12/14 05:48:42;;;;;;;10.65;6.72;;;6.10;99.90;;;;;;502369;236;27882;-75
2021/12/14 05:50:43;;;;;;;8.52;6.00;;;6.10;99.90;;;;;;503069;236;27935;-76
2021/12/14 05:52:44;;;;;;;8.02;6.07;;;6.10;99.90;;;;;;503033;236;27471;-75
2021/12/14 05:54:46;;;;;;;8.55;5.90;;;6.10;99.90;;;;;;503076;236;27469;-75
2021/12/14 05:56:47;;;;;;;8.40;6.62;;;6.10;99.90;;;;;;503088;236;27451;-75
2021/12/14 05:58:48;;;;;;;7.12;5.72;;;6.00;99.90;;;;;;503143;236;27481;-75
2021/12/14 06:00:50;;;;;;;7.87;5.85;;;6.00;99.90;;;;;;503076;236;27580;-75
2021/12/14 06:02:51;;;;;;;7.70;6.70;;;6.00;99.90;;;;;;503104;236;27873;-75
2021/12/14 06:04:52;;;;;;;7.78;5.40;;;6.00;99.90;;;;;;503082;236;28015;-75
2021/12/14 06:06:53;;;;;;;7.90;5.55;;;6.00;99.90;;;;;;503098;236;27501;-76
2021/12/14 06:08:55;;;;;;;6.07;5.15;;;6.00;99.90;;;;;;503102;236;27488;-74
2021/12/14 06:10:56;;;;;;;6.80;5.22;;;6.00;99.90;;;;;;503051;236;27477;-76
2021/12/14 06:12:57;;;;;;;8.45;6.00;;;6.00;99.90;;;;;;502991;236;27443;-75
2021/12/14 06:14:59;;;;;;;6.18;5.12;;;6.00;99.90;;;;;;503039;236;27493;-76
2021/12/14 06:17:00;;;;;;;5.87;4.85;;;5.90;99.90;;;;;;503045;236;27503;-75
2021/12/14 06:19:01;;;;;;;5.25;4.20;;;5.90;99.90;;;;;;503004;236;27928;-75
2021/12/14 06:21:02;;;;;;;5.68;4.85;;;5.90;99.90;;;;;;503011;236;27953;-75
2021/12/14 06:23:03;;;;;;;5.93;4.80;;;6.00;99.90;;;;;;503056;236;27457;-76
2021/12/14 06:25:05;;;;;;;6.37;4.45;;;5.90;99.90;;;;;;503061;236;27498;-76
2021/12/14 06:27:06;;;;;;;6.25;4.87;;;5.90;99.90;;;;;;503102;236;27546;-76
2021/12/14 06:29:07;;;;;;;5.93;4.68;;;5.90;99.90;;;;;;503074;236;27441;-76
2021/12/14 06:31:08;;;;;;;5.85;4.47;;;5.90;99.90;;;;;;503124;236;27474;-75
2021/12/14 06:33:10;;;;;;;4.62;4.03;;;5.90;99.90;;;;;;503122;236;27440;-75
2021/12/14 06:35:11;;;;;;;5.37;4.60;;;5.90;99.90;;;;;;503096;236;27936;-76
2021/12/14 06:37:19;;;;;;;5.47;4.95;;;5.90;99.90;;;;;;503145;236;27967;-76
2021/12/14 06:39:13;;;;;;;5.22;4.10;;;5.80;99.90;;;;;;502550;236;27892;-76
2021/12/14 06:41:15;;;;;;;6.30;5.30;;;5.80;99.90;;;;;;503114;236;27551;-75
2021/12/14 06:43:16;;;;;;;5.72;4.78;;;5.80;99.90;;;;;;503104;236;27451;-76
2021/12/14 06:45:19;;;;;;;6.35;4.35;;;5.80;99.90;;;;;;503119;236;27552;-76
2021/12/14 06:47:18;;;;;;;6.10;4.78;;;5.80;99.90;;;;;;503008;236;27549;-76
2021/12/14 06:49:20;;;;;;;5.60;4.28;;;5.80;99.90;;;;;;503110;236;27486;-75
2021/12/14 06:51:21;;;;;;;4.72;3.92;;;5.80;99.90;;;;;;503104;236;27973;-76
2021/12/14 06:53:22;;;;;;;6.03;4.70;;;5.80;99.90;;;;;;503101;236;28802;-75
2021/12/14 06:55:23;;;;;;;6.22;4.90;;;5.80;99.90;;;;;;503120;236;27908;-75
2021/12/14 06:57:25;;;;;;;6.37;5.05;;;5.80;99.90;;;;;;503086;236;27497;-75
2021/12/14 06:59:26;;;;;;;5.68;4.78;;;5.80;99.90;;;;;;503091;236;27454;-74
2021/12/14 07:01:27;;;;;;;6.90;5.20;;;5.80;99.90;;;;;;503103;236;27580;-75
2021/12/14 07:03:28;;;;;;;6.37;4.32;;;5.80;99.90;;;;;;503085;236;27560;-76
2021/12/14 07:05:30;;;;;;;6.47;4.60;;;5.80;99.90;;;;;;503088;236;27446;-75
2021/12/14 07:07:32;;;;;;;7.90;5.22;;;5.80;99.90;;;;;;503108;236;27490;-76
2021/12/14 07:09:33;;;;;;;6.40;4.50;;;5.80;99.90;;;;;;503038;236;27885;-75
2021/12/14 07:11:33;;;;;;;7.18;5.35;;;5.80;99.90;;;;;;503030;236;27946;-76
2021/12/14 07:13:38;;;;;;;6.60;5.40;;;5.80;99.90;;;;;;503121;236;27497;-75
2021/12/14 07:15:36;;;;;;;8.20;5.80;;;5.80;99.90;;;;;;502877;236;27542;-75
2021/12/14 07:17:45;;;;;;;8.80;5.70;;;5.80;99.90;;;;;;503140;236;27468;-75
2021/12/14 07:19:44;;;;;;;6.55;4.87;;;5.80;99.90;;;;;;502976;236;27628;-75
2021/12/14 07:21:45;;;;;;;7.47;5.05;;;5.80;99.90;;;;;;503097;236;27489;-75
2021/12/14 07:23:47;;;;;;;8.23;5.70;;;5.80;99.90;;;;;;503073;236;27443;-75
2021/12/14 07:25:48;;;;;;;6.60;5.03;;;5.80;99.90;;;;;;503109;236;27473;-75
2021/12/14 07:27:49;;;;;;;7.43;4.90;;;5.80;99.90;;;;;;503098;236;27581;-75
2021/12/14 07:29:50;;;;;;;5.65;4.55;;;5.80;99.90;;;;;;503089;236;27508;-75
2021/12/14 07:31:52;;;;;;;5.65;4.62;;;5.80;99.90;;;;;;503062;236;27605;-76
2021/12/14 07:33:53;;;;;;;7.12;5.40;;;5.80;99.90;;;;;;503082;236;28752;-75
2021/12/14 07:35:54;;;;;;;7.70;5.80;;;5.80;99.90;;;;;;503088;236;27981;-75
2021/12/14 07:37:55;;;;;;;7.60;5.18;;;5.80;99.90;;;;;;503095;236;27486;-75
2021/12/14 07:39:57;;;;;;;7.50;5.15;;;5.80;99.90;;;;;;503090;236;27520;-76
2021/12/14 07:42:01;;;;;;;7.80;4.10;;;5.80;99.90;;;;;;503064;236;27502;-75
2021/12/14 07:44:02;;;;;;;7.35;4.72;;;5.80;99.90;;;;;;503071;236;27510;-75
2021/12/14 07:46:03;;;;;;;6.57;4.62;;;5.80;99.90;;;;;;503089;236;27547;-75
2021/12/14 07:48:05;;;;;;;7.30;4.50;;;5.80;99.90;;;;;;503068;236;27586;-76
2021/12/14 07:50:06;;;;;;;6.12;4.10;;;5.80;99.90;;;;;;503101;236;27951;-75
2021/12/14 07:52:07;;;;;;;6.80;5.20;;;5.80;99.90;;;;;;503073;236;27988;-75
2021/12/14 07:54:08;;;;;;;6.75;4.40;;;5.80;99.90;;;;;;503038;236;27987;-75
2021/12/14 07:56:10;;;;;;;7.22;4.62;;;5.80;99.90;;;;;;503033;236;27548;-75
2021/12/14 07:58:11;;;;;;;5.43;4.18;;;5.80;99.90;;;;;;503058;236;27541;-78
2021/12/14 08:00:12;;;;;;;5.95;4.32;;;5.80;99.90;;;;;;503067;236;27520;-76
2021/12/14 08:02:13;;;;;;;6.00;4.37;;;5.80;99.90;;;;;;503092;236;27443;-76
2021/12/14 08:04:15;;;;;;;4.85;3.80;;;5.90;99.90;;;;;;503087;236;27541;-76
2021/12/14 08:06:16;;;;;;;5.32;4.10;;;5.80;99.90;;;;;;503113;236;28023;-75
2021/12/14 08:08:18;;;;;;;6.20;3.95;;;5.80;99.90;;;;;;503130;236;27898;-75
2021/12/14 08:10:18;;;;;;;4.80;3.87;;;5.80;99.90;;;;;;503024;236;27478;-75
2021/12/14 08:12:20;;;;;;;5.85;4.03;;;5.70;99.90;;;;;;503076;236;27427;-75
2021/12/14 08:14:21;;;;;;;6.00;4.03;;;5.70;99.90;;;;;;503098;236;27461;-76
2021/12/14 08:16:22;;;;;;;5.75;4.32;;;5.70;99.90;;;;;;503098;236;27493;-75
2021/12/14 08:18:23;;;;;;;5.60;4.20;;;5.70;99.90;;;;;;503066;236;27445;-75
2021/12/14 08:20:26;;;;;;;5.65;4.35;;;5.70;99.90;;;;;;503080;236;27501;-76
2021/12/14 08:22:26;;;;;;;6.03;3.90;;;5.70;99.90;;;;;;502999;236;27924;-75
2021/12/14 08:24:27;;;;;;;4.55;3.85;;;5.70;99.90;;;;;;503084;236;27965;-75
2021/12/14 08:26:29;;;;;;;3.58;3.10;;;5.70;99.90;;;;;;503086;236;28066;-76
2021/12/14 08:28:30;;;;;;;5.28;3.80;;;5.80;99.90;;;;;;503091;236;27450;-75
2021/12/14 08:30:31;;;;;;;4.50;3.08;;;5.70;99.90;;;;;;503136;236;27483;-75
2021/12/14 08:32:32;;;;;;;6.37;3.62;;;5.70;99.90;;;;;;503096;236;27475;-76
2021/12/14 08:34:34;;;;;;;5.57;3.45;;;5.80;99.90;;;;;;503123;236;27593;-76
2021/12/14 08:36:35;;;;;;;4.68;3.60;;;5.80;99.90;;;;;;503135;236;27857;-75
2021/12/14 08:38:36;;;;;;;3.80;3.37;;;5.70;99.90;;;;;;503137;236;27455;-75
2021/12/14 08:40:38;;;;;;;4.30;3.17;;;5.70;99.90;;;;;;503106;236;27960;-76
2021/12/14 08:42:48;;;;;;;4.57;3.40;;;5.70;99.90;;;;;;503103;236;27907;-75
2021/12/14 08:44:40;;;;;;;4.80;3.22;;;5.70;99.90;;;;;;502333;236;27585;-75
2021/12/14 08:46:41;;;;;;;4.18;3.50;;;5.70;99.90;;;;;;503070;236;27501;-77
2021/12/14 08:48:42;;;;;;;4.80;3.37;;;5.70;99.90;;;;;;503099;236;27451;-75
2021/12/14 08:50:44;;;;;;;5.90;4.12;;;5.70;99.90;;;;;;503098;236;27539;-75
2021/12/14 08:52:45;;;;;;;3.95;3.30;;;5.70;99.90;;;;;;503080;236;27514;-75
2021/12/14 08:54:46;;;;;;;5.50;3.47;;;5.70;99.90;;;;;;503051;236;27571;-76
2021/12/14 08:56:47;;;;;;;5.05;3.78;;;5.70;99.90;;;;;;503105;236;27980;-75
2021/12/14 08:58:49;;;;;;;4.32;3.72;;;5.70;99.90;;;;;;503080;236;28030;-75
2021/12/14 09:00:50;;;;;;;5.30;4.18;;;5.70;99.90;;;;;;503053;236;27945;-76
2021/12/14 09:02:53;;;;;;;6.47;4.00;;;5.60;99.90;;;;;;503064;236;27513;-75
2021/12/14 09:04:52;;;;;;;6.35;3.75;;;5.60;99.90;;;;;;502979;236;27513;-76
2021/12/14 09:06:54;;;;;;;4.87;3.65;;;5.60;99.90;;;;;;503102;236;27547;-75
2021/12/14 09:08:55;;;;;;;5.50;3.67;;;5.60;99.90;;;;;;503080;236;27517;-75
2021/12/14 09:10:56;;;;;;;7.00;4.05;;;5.60;99.90;;;;;;503056;236;27498;-75
2021/12/14 09:12:59;;;;;;;5.10;3.90;;;5.60;99.90;;;;;;503089;236;27556;-75
2021/12/14 09:14:59;;;;;;;5.07;4.03;;;5.70;99.90;;;;;;503024;236;28006;-75
2021/12/14 09:17:00;;;;;;;4.93;3.80;;;5.70;99.90;;;;;;503069;236;28014;-76
2021/12/14 09:19:02;;;;;;;6.18;4.03;;;5.80;99.90;;;;;;503083;236;27514;-76
2021/12/14 09:21:02;;;;;;;7.30;4.40;;;5.90;99.90;;;;;;503060;236;27602;-75
2021/12/14 09:23:04;;;;;;;5.75;3.85;;;6.00;99.90;;;;;;503061;236;27478;-75
2021/12/14 09:25:05;;;;;;;5.53;4.30;;;6.10;99.90;;;;;;503087;236;27496;-76
2021/12/14 09:27:06;;;;;;;5.43;4.12;;;6.10;99.90;;;;;;503078;236;27573;-76
2021/12/14 09:29:07;;;;;;;6.45;4.65;;;6.20;99.90;;;;;;503074;236;27579;-76
2021/12/14 09:31:09;;;;;;;6.97;4.70;;;6.30;99.90;;;;;;503067;236;27969;-76
2021/12/14 09:33:10;;;;;;;6.55;4.35;;;6.30;99.90;;;;;;503098;236;28039;-76
2021/12/14 09:35:13;;;;;;;7.55;5.00;;;6.40;99.90;;;;;;503077;236;27463;-76
2021/12/14 09:37:12;;;;;;;6.37;4.22;;;6.40;99.90;;;;;;502909;236;27496;-75
2021/12/14 09:39:14;;;;;;;6.75;4.87;;;6.40;99.90;;;;;;503060;236;27453;-75
2021/12/14 09:41:15;;;;;;;6.18;4.35;;;6.30;99.90;;;;;;503105;236;27506;-76
2021/12/14 09:43:16;;;;;;;6.55;4.47;;;6.20;99.90;;;;;;503101;236;28111;-76
2021/12/14 09:45:18;;;;;;;6.68;4.70;;;6.20;99.90;;;;;;503095;236;27996;-76
2021/12/14 09:47:19;;;;;;;6.93;4.72;;;6.20;99.90;;;;;;503073;236;27498;-75
2021/12/14 09:49:20;;;;;;;5.68;4.20;;;6.30;99.90;;;;;;503073;236;27442;-76
2021/12/14 09:51:21;;;;;;;6.97;4.95;;;6.30;99.90;;;;;;503085;236;27470;-76
2021/12/14 09:53:23;;;;;;;6.05;4.40;;;6.30;99.90;;;;;;503107;236;27614;-75
2021/12/14 09:55:24;;;;;;;7.43;4.95;;;6.20;99.90;;;;;;503086;236;27564;-76
2021/12/14 09:57:25;;;;;;;7.10;4.73;;;6.20;99.90;;;;;;503095;236;27960;-76
2021/12/14 09:59:26;;;;;;;6.40;4.47;;;6.20;99.90;;;;;;503076;236;30064;-76
2021/12/14 10:01:28;;;;;;;6.90;4.90;;;6.20;99.90;;;;;;503090;236;28014;-76
2021/12/14 10:03:29;;;;;;;6.93;4.85;;;6.30;99.90;;;;;;503089;236;27576;-76
2021/12/14 10:05:30;;;;;;;7.57;4.80;;;6.10;99.90;;;;;;503100;236;27526;-75
2021/12/14 10:07:31;;;;;;;7.10;4.90;;;6.10;99.90;;;;;;503064;236;27498;-76
2021/12/14 10:09:38;;;;;;;8.27;5.10;;;6.10;99.90;;;;;;503105;236;27539;-76
2021/12/14 10:11:41;;;;;;;8.80;5.80;;;6.10;99.90;;;;;;502659;236;27439;-76
2021/12/14 10:13:35;;;;;;;7.03;4.85;;;6.00;99.90;;;;;;502501;236;28511;-76
2021/12/14 10:15:37;;;;;;;8.65;5.40;;;6.10;99.90;;;;;;503093;236;27898;-75
2021/12/14 10:17:39;;;;;;;8.80;5.20;;;6.10;99.90;;;;;;503096;236;27955;-77
2021/12/14 10:19:39;;;;;;;7.40;5.30;;;6.20;99.90;;;;;;502985;236;27564;-76
2021/12/14 10:21:40;;;;;;;8.50;4.82;;;6.20;99.90;;;;;;503090;236;27563;-76
2021/12/14 10:23:41;;;;;;;8.70;5.45;;;6.20;99.90;;;;;;503098;236;27492;-77
2021/12/14 10:25:43;;;;;;;7.97;5.10;;;6.10;99.90;;;;;;503099;236;27471;-76
2021/12/14 10:27:46;;;;;;;5.75;4.87;;;6.00;99.90;;;;;;503109;236;27496;-76
2021/12/14 10:29:45;;;;;;;6.97;4.62;;;6.10;99.90;;;;;;502924;236;27984;-76
2021/12/14 10:31:48;;;;;;;9.38;5.75;;;6.30;99.90;;;;;;503128;236;27921;-76
2021/12/14 10:33:48;;;;;;;8.43;5.72;;;6.20;99.90;;;;;;503054;236;27560;-76
2021/12/14 10:35:51;;;;;;;8.93;5.30;;;6.20;99.90;;;;;;503105;236;27514;-76
2021/12/14 10:38:12;;;;;;;8.30;4.72;;;6.10;99.90;;;;;;502743;236;27455;-76
2021/12/14 10:44:40;;;;;;;10.32;5.90;;;6.30;99.90;;;;;;503043;236;27493;-75
2021/12/14 10:46:45;;;;;;;10.02;6.53;;;6.30;99.90;;;;;;503026;236;27426;-76
2021/12/14 10:48:42;;;;;;;7.50;5.28;;;6.20;99.90;;;;;;502757;236;27483;-76
2021/12/14 10:50:43;;;;;;;9.75;5.65;;;6.10;99.90;;;;;;503101;236;27437;-75
2021/12/14 10:52:44;;;;;;;10.63;5.75;;;6.00;99.90;;;;;;503090;236;27977;-76
2021/12/14 10:54:46;;;;;;;8.60;5.70;;;5.90;99.90;;;;;;503098;236;27585;-75
2021/12/14 10:56:47;;;;;;;10.93;5.85;;;6.00;99.90;;;;;;503109;236;27449;-75
2021/12/14 10:58:48;;;;;;;11.77;6.15;;;6.00;99.90;;;;;;503093;236;27470;-76
2021/12/14 11:00:49;;;;;;;8.02;5.30;;;6.00;99.90;;;;;;503078;236;27526;-76
2021/12/14 11:02:51;;;;;;;9.65;6.25;;;6.10;99.90;;;;;;503054;236;27561;-75
2021/12/14 11:04:54;;;;;;;10.18;5.50;;;6.10;99.90;;;;;;503115;236;27964;-76